sensor_id;sensor_type;location;lat;lon;timestamp;temperature;humidity
7970;DHT22;4030;52.362;9.206;2023-12-29T00:01:33;10.70;97.90
7970;DHT22;4030;52.362;9.206;2023-12-29T00:04:00;10.60;97.80
7970;DHT22;4030;52.362;9.206;2023-12-29T00:06:26;10.60;97.70
7970;DHT22;4030;52.362;9.206;2023-12-29T00:08:52;10.60;97.70
7970;DHT22;4030;52.362;9.206;2023-12-29T00:11:20;10.60;97.70
7970;DHT22;4030;52.362;9.206;2023-12-29T00:13:47;10.60;97.70
7970;DHT22;4030;52.362;9.206;2023-12-29T00:16:14;10.60;97.70
7970;DHT22;4030;52.362;9.206;2023-12-29T00:18:40;10.60;97.70
7970;DHT22;4030;52.362;9.206;2023-12-29T00:21:06;10.60;97.70
7970;DHT22;4030;52.362;9.206;2023-12-29T00:23:31;10.60;97.80
7970;DHT22;4030;52.362;9.206;2023-12-29T00:25:57;10.70;97.80
7970;DHT22;4030;52.362;9.206;2023-12-29T00:28:23;10.70;97.80
7970;DHT22;4030;52.362;9.206;2023-12-29T00:30:49;10.60;97.80
7970;DHT22;4030;52.362;9.206;2023-12-29T00:33:15;10.60;97.90
7970;DHT22;4030;52.362;9.206;2023-12-29T00:35:40;10.70;97.90
7970;DHT22;4030;52.362;9.206;2023-12-29T00:38:06;10.60;97.90
7970;DHT22;4030;52.362;9.206;2023-12-29T00:40:33;10.60;97.90
7970;DHT22;4030;52.362;9.206;2023-12-29T00:43:00;10.60;98.00
7970;DHT22;4030;52.362;9.206;2023-12-29T00:45:26;10.60;98.00
7970;DHT22;4030;52.362;9.206;2023-12-29T00:47:57;10.60;98.00
7970;DHT22;4030;52.362;9.206;2023-12-29T00:50:23;10.60;98.10
7970;DHT22;4030;52.362;9.206;2023-12-29T00:52:48;10.60;98.10
7970;DHT22;4030;52.362;9.206;2023-12-29T00:55:14;10.60;98.10
7970;DHT22;4030;52.362;9.206;2023-12-29T00:57:40;10.60;98.20
7970;DHT22;4030;52.362;9.206;2023-12-29T01:00:07;10.60;98.20
7970;DHT22;4030;52.362;9.206;2023-12-29T01:02:36;10.70;98.20
7970;DHT22;4030;52.362;9.206;2023-12-29T01:05:01;10.60;98.20
7970;DHT22;4030;52.362;9.206;2023-12-29T01:07:27;10.60;98.20
7970;DHT22;4030;52.362;9.206;2023-12-29T01:09:53;10.70;98.30
7970;DHT22;4030;52.362;9.206;2023-12-29T01:12:18;10.70;98.40
7970;DHT22;4030;52.362;9.206;2023-12-29T01:14:44;10.70;98.40
7970;DHT22;4030;52.362;9.206;2023-12-29T01:17:10;10.70;98.40
7970;DHT22;4030;52.362;9.206;2023-12-29T01:19:35;10.70;98.40
7970;DHT22;4030;52.362;9.206;2023-12-29T01:22:01;10.70;98.40
7970;DHT22;4030;52.362;9.206;2023-12-29T01:24:27;10.70;98.40
7970;DHT22;4030;52.362;9.206;2023-12-29T01:26:52;10.70;98.40
7970;DHT22;4030;52.362;9.206;2023-12-29T01:29:18;10.70;98.40
7970;DHT22;4030;52.362;9.206;2023-12-29T01:31:44;10.70;98.40
7970;DHT22;4030;52.362;9.206;2023-12-29T01:34:09;10.70;98.50
7970;DHT22;4030;52.362;9.206;2023-12-29T01:36:35;10.70;98.50
7970;DHT22;4030;52.362;9.206;2023-12-29T01:39:01;10.70;98.60
7970;DHT22;4030;52.362;9.206;2023-12-29T01:41:29;10.70;98.70
7970;DHT22;4030;52.362;9.206;2023-12-29T01:46:25;10.70;98.80
7970;DHT22;4030;52.362;9.206;2023-12-29T01:48:51;10.70;98.90
7970;DHT22;4030;52.362;9.206;2023-12-29T01:51:17;10.70;99.00
7970;DHT22;4030;52.362;9.206;2023-12-29T01:53:46;10.70;99.10
7970;DHT22;4030;52.362;9.206;2023-12-29T01:56:13;10.70;99.10
7970;DHT22;4030;52.362;9.206;2023-12-29T01:58:39;10.70;99.20
7970;DHT22;4030;52.362;9.206;2023-12-29T02:01:07;10.60;99.20
7970;DHT22;4030;52.362;9.206;2023-12-29T02:03:34;10.70;99.30
7970;DHT22;4030;52.362;9.206;2023-12-29T02:06:00;10.60;99.30
7970;DHT22;4030;52.362;9.206;2023-12-29T02:08:26;10.70;99.40
7970;DHT22;4030;52.362;9.206;2023-12-29T02:10:51;10.60;99.30
7970;DHT22;4030;52.362;9.206;2023-12-29T02:13:17;10.60;99.70
7970;DHT22;4030;52.362;9.206;2023-12-29T02:15:43;10.70;99.40
7970;DHT22;4030;52.362;9.206;2023-12-29T02:18:14;10.60;99.40
7970;DHT22;4030;52.362;9.206;2023-12-29T02:20:42;10.60;99.40
7970;DHT22;4030;52.362;9.206;2023-12-29T02:23:07;10.60;99.40
7970;DHT22;4030;52.362;9.206;2023-12-29T02:25:34;10.60;99.40
7970;DHT22;4030;52.362;9.206;2023-12-29T02:28:09;10.60;99.50
7970;DHT22;4030;52.362;9.206;2023-12-29T02:30:57;10.60;99.50
7970;DHT22;4030;52.362;9.206;2023-12-29T02:33:24;10.70;99.50
7970;DHT22;4030;52.362;9.206;2023-12-29T02:35:52;10.70;99.50
7970;DHT22;4030;52.362;9.206;2023-12-29T02:38:21;10.60;99.50
7970;DHT22;4030;52.362;9.206;2023-12-29T02:40:46;10.60;99.50
7970;DHT22;4030;52.362;9.206;2023-12-29T02:43:12;10.60;99.50
7970;DHT22;4030;52.362;9.206;2023-12-29T02:45:38;10.60;99.50
7970;DHT22;4030;52.362;9.206;2023-12-29T02:48:04;10.70;99.60
7970;DHT22;4030;52.362;9.206;2023-12-29T02:50:29;10.60;99.50
7970;DHT22;4030;52.362;9.206;2023-12-29T02:52:55;10.70;99.60
7970;DHT22;4030;52.362;9.206;2023-12-29T02:55:21;10.70;99.60
7970;DHT22;4030;52.362;9.206;2023-12-29T02:57:47;10.60;99.60
7970;DHT22;4030;52.362;9.206;2023-12-29T03:00:13;10.70;99.70
7970;DHT22;4030;52.362;9.206;2023-12-29T03:02:39;10.70;99.70
7970;DHT22;4030;52.362;9.206;2023-12-29T03:05:05;10.70;99.90
7970;DHT22;4030;52.362;9.206;2023-12-29T03:07:31;10.70;99.70
7970;DHT22;4030;52.362;9.206;2023-12-29T03:09:57;10.70;99.70
7970;DHT22;4030;52.362;9.206;2023-12-29T03:12:23;10.70;99.80
7970;DHT22;4030;52.362;9.206;2023-12-29T03:14:49;10.70;99.80
7970;DHT22;4030;52.362;9.206;2023-12-29T03:17:15;10.70;99.80
7970;DHT22;4030;52.362;9.206;2023-12-29T03:19:40;10.70;99.80
7970;DHT22;4030;52.362;9.206;2023-12-29T03:22:06;10.70;99.80
7970;DHT22;4030;52.362;9.206;2023-12-29T03:24:32;10.70;99.80
7970;DHT22;4030;52.362;9.206;2023-12-29T03:26:57;10.70;99.80
7970;DHT22;4030;52.362;9.206;2023-12-29T03:29:23;10.70;99.80
7970;DHT22;4030;52.362;9.206;2023-12-29T03:31:49;10.70;99.80
7970;DHT22;4030;52.362;9.206;2023-12-29T03:34:14;10.70;99.80
7970;DHT22;4030;52.362;9.206;2023-12-29T03:36:40;10.70;99.70
7970;DHT22;4030;52.362;9.206;2023-12-29T03:39:06;10.70;99.70
7970;DHT22;4030;52.362;9.206;2023-12-29T03:41:31;10.70;99.90
7970;DHT22;4030;52.362;9.206;2023-12-29T03:43:57;10.70;99.70
7970;DHT22;4030;52.362;9.206;2023-12-29T03:46:24;10.70;99.70
7970;DHT22;4030;52.362;9.206;2023-12-29T03:48:51;10.70;99.70
7970;DHT22;4030;52.362;9.206;2023-12-29T03:51:17;10.70;99.80
7970;DHT22;4030;52.362;9.206;2023-12-29T03:53:43;10.70;99.90
7970;DHT22;4030;52.362;9.206;2023-12-29T03:56:16;10.70;99.90
7970;DHT22;4030;52.362;9.206;2023-12-29T03:58:46;10.70;99.90
7970;DHT22;4030;52.362;9.206;2023-12-29T04:01:13;10.70;99.90
7970;DHT22;4030;52.362;9.206;2023-12-29T04:03:40;10.70;99.90
7970;DHT22;4030;52.362;9.206;2023-12-29T04:06:06;10.70;99.90
7970;DHT22;4030;52.362;9.206;2023-12-29T04:08:33;10.70;99.90
7970;DHT22;4030;52.362;9.206;2023-12-29T04:10:59;10.70;99.90
7970;DHT22;4030;52.362;9.206;2023-12-29T04:13:25;10.70;99.90
7970;DHT22;4030;52.362;9.206;2023-12-29T04:15:50;10.70;99.90
7970;DHT22;4030;52.362;9.206;2023-12-29T04:18:16;10.70;99.90
7970;DHT22;4030;52.362;9.206;2023-12-29T04:20:42;10.70;99.90
7970;DHT22;4030;52.362;9.206;2023-12-29T04:23:08;10.70;99.90
7970;DHT22;4030;52.362;9.206;2023-12-29T04:25:34;10.30;99.90
7970;DHT22;4030;52.362;9.206;2023-12-29T04:28:00;10.70;99.90
7970;DHT22;4030;52.362;9.206;2023-12-29T04:30:26;10.70;99.90
7970;DHT22;4030;52.362;9.206;2023-12-29T04:32:52;10.70;99.90
7970;DHT22;4030;52.362;9.206;2023-12-29T04:35:17;10.60;99.90
7970;DHT22;4030;52.362;9.206;2023-12-29T04:37:44;10.60;99.90
7970;DHT22;4030;52.362;9.206;2023-12-29T04:40:13;10.60;99.90
7970;DHT22;4030;52.362;9.206;2023-12-29T04:42:39;10.60;99.90
7970;DHT22;4030;52.362;9.206;2023-12-29T04:45:05;10.60;99.90
7970;DHT22;4030;52.362;9.206;2023-12-29T04:47:31;10.60;99.90
7970;DHT22;4030;52.362;9.206;2023-12-29T04:49:57;10.60;99.90
7970;DHT22;4030;52.362;9.206;2023-12-29T04:52:22;10.60;99.90
7970;DHT22;4030;52.362;9.206;2023-12-29T04:54:48;10.60;99.90
7970;DHT22;4030;52.362;9.206;2023-12-29T04:57:14;10.60;99.90
7970;DHT22;4030;52.362;9.206;2023-12-29T04:59:39;10.60;99.90
7970;DHT22;4030;52.362;9.206;2023-12-29T05:02:05;10.50;99.90
7970;DHT22;4030;52.362;9.206;2023-12-29T05:04:31;10.50;99.90
7970;DHT22;4030;52.362;9.206;2023-12-29T05:06:56;10.50;99.90
7970;DHT22;4030;52.362;9.206;2023-12-29T05:09:22;10.50;99.90
7970;DHT22;4030;52.362;9.206;2023-12-29T05:11:48;10.50;99.90
7970;DHT22;4030;52.362;9.206;2023-12-29T05:14:14;10.50;99.90
7970;DHT22;4030;52.362;9.206;2023-12-29T05:16:41;10.50;99.90
7970;DHT22;4030;52.362;9.206;2023-12-29T05:19:07;10.50;99.90
7970;DHT22;4030;52.362;9.206;2023-12-29T05:21:32;10.50;99.90
7970;DHT22;4030;52.362;9.206;2023-12-29T05:23:58;10.50;99.90
7970;DHT22;4030;52.362;9.206;2023-12-29T05:26:24;10.50;99.90
7970;DHT22;4030;52.362;9.206;2023-12-29T05:28:50;10.50;99.90
7970;DHT22;4030;52.362;9.206;2023-12-29T05:31:16;10.50;99.90
7970;DHT22;4030;52.362;9.206;2023-12-29T05:33:43;10.50;99.90
7970;DHT22;4030;52.362;9.206;2023-12-29T05:36:12;10.40;99.90
7970;DHT22;4030;52.362;9.206;2023-12-29T05:38:37;10.40;99.90
7970;DHT22;4030;52.362;9.206;2023-12-29T05:41:04;10.50;99.90
7970;DHT22;4030;52.362;9.206;2023-12-29T05:43:31;10.40;99.90
7970;DHT22;4030;52.362;9.206;2023-12-29T05:45:58;10.40;99.90
7970;DHT22;4030;52.362;9.206;2023-12-29T05:48:24;10.40;99.90
7970;DHT22;4030;52.362;9.206;2023-12-29T05:50:50;10.40;99.90
7970;DHT22;4030;52.362;9.206;2023-12-29T05:53:16;10.40;99.90
7970;DHT22;4030;52.362;9.206;2023-12-29T05:55:42;10.40;99.90
7970;DHT22;4030;52.362;9.206;2023-12-29T05:58:08;10.40;99.90
7970;DHT22;4030;52.362;9.206;2023-12-29T06:00:38;10.40;99.90
7970;DHT22;4030;52.362;9.206;2023-12-29T06:03:05;10.40;99.90
7970;DHT22;4030;52.362;9.206;2023-12-29T06:05:31;10.40;99.90
7970;DHT22;4030;52.362;9.206;2023-12-29T06:07:57;10.40;99.90
7970;DHT22;4030;52.362;9.206;2023-12-29T06:10:23;10.40;99.90
7970;DHT22;4030;52.362;9.206;2023-12-29T06:12:49;10.40;99.90
7970;DHT22;4030;52.362;9.206;2023-12-29T06:15:15;10.40;99.90
7970;DHT22;4030;52.362;9.206;2023-12-29T06:17:41;10.40;99.90
7970;DHT22;4030;52.362;9.206;2023-12-29T06:20:07;10.40;99.90
7970;DHT22;4030;52.362;9.206;2023-12-29T06:22:39;10.40;99.90
7970;DHT22;4030;52.362;9.206;2023-12-29T06:25:09;10.40;99.90
7970;DHT22;4030;52.362;9.206;2023-12-29T06:27:36;10.40;99.90
7970;DHT22;4030;52.362;9.206;2023-12-29T06:30:05;10.40;99.90
7970;DHT22;4030;52.362;9.206;2023-12-29T06:32:31;10.40;99.90
7970;DHT22;4030;52.362;9.206;2023-12-29T06:34:57;10.30;99.90
7970;DHT22;4030;52.362;9.206;2023-12-29T06:37:23;10.40;99.90
7970;DHT22;4030;52.362;9.206;2023-12-29T06:39:48;10.30;99.90
7970;DHT22;4030;52.362;9.206;2023-12-29T06:42:14;10.30;99.90
7970;DHT22;4030;52.362;9.206;2023-12-29T06:44:40;10.30;99.90
7970;DHT22;4030;52.362;9.206;2023-12-29T06:47:05;10.30;99.90
7970;DHT22;4030;52.362;9.206;2023-12-29T06:49:34;10.30;99.90
7970;DHT22;4030;52.362;9.206;2023-12-29T06:52:00;10.30;99.90
7970;DHT22;4030;52.362;9.206;2023-12-29T06:54:25;10.30;99.90
7970;DHT22;4030;52.362;9.206;2023-12-29T06:56:51;10.30;99.90
7970;DHT22;4030;52.362;9.206;2023-12-29T06:59:17;10.30;99.90
7970;DHT22;4030;52.362;9.206;2023-12-29T07:01:45;10.30;99.90
7970;DHT22;4030;52.362;9.206;2023-12-29T07:04:11;10.30;99.90
7970;DHT22;4030;52.362;9.206;2023-12-29T07:06:37;10.30;99.90
7970;DHT22;4030;52.362;9.206;2023-12-29T07:09:03;10.30;99.90
7970;DHT22;4030;52.362;9.206;2023-12-29T07:11:29;10.30;99.90
7970;DHT22;4030;52.362;9.206;2023-12-29T07:13:55;10.30;99.90
7970;DHT22;4030;52.362;9.206;2023-12-29T07:16:21;10.30;99.90
7970;DHT22;4030;52.362;9.206;2023-12-29T07:18:47;10.30;99.90
7970;DHT22;4030;52.362;9.206;2023-12-29T07:21:14;10.30;99.90
7970;DHT22;4030;52.362;9.206;2023-12-29T07:23:40;10.30;99.90
7970;DHT22;4030;52.362;9.206;2023-12-29T07:26:07;10.30;99.90
7970;DHT22;4030;52.362;9.206;2023-12-29T07:28:32;10.30;99.90
7970;DHT22;4030;52.362;9.206;2023-12-29T07:30:58;10.30;99.90
7970;DHT22;4030;52.362;9.206;2023-12-29T07:33:25;10.30;99.90
7970;DHT22;4030;52.362;9.206;2023-12-29T07:35:50;10.30;99.90
7970;DHT22;4030;52.362;9.206;2023-12-29T07:38:16;10.40;99.90
7970;DHT22;4030;52.362;9.206;2023-12-29T07:40:42;10.30;99.90
7970;DHT22;4030;52.362;9.206;2023-12-29T07:43:08;10.40;99.90
7970;DHT22;4030;52.362;9.206;2023-12-29T07:45:33;10.40;99.90
7970;DHT22;4030;52.362;9.206;2023-12-29T07:47:59;10.40;99.90
7970;DHT22;4030;52.362;9.206;2023-12-29T07:50:27;10.40;99.90
7970;DHT22;4030;52.362;9.206;2023-12-29T07:52:53;10.40;99.90
7970;DHT22;4030;52.362;9.206;2023-12-29T07:55:18;10.40;99.90
7970;DHT22;4030;52.362;9.206;2023-12-29T07:57:44;10.40;99.90
7970;DHT22;4030;52.362;9.206;2023-12-29T08:00:12;10.40;99.90
7970;DHT22;4030;52.362;9.206;2023-12-29T08:02:40;10.40;99.90
7970;DHT22;4030;52.362;9.206;2023-12-29T08:05:06;10.40;99.90
7970;DHT22;4030;52.362;9.206;2023-12-29T08:07:34;10.40;99.90
7970;DHT22;4030;52.362;9.206;2023-12-29T08:10:00;10.50;99.90
7970;DHT22;4030;52.362;9.206;2023-12-29T08:12:26;10.50;99.90
7970;DHT22;4030;52.362;9.206;2023-12-29T08:14:53;10.50;99.90
7970;DHT22;4030;52.362;9.206;2023-12-29T08:17:19;10.50;99.90
7970;DHT22;4030;52.362;9.206;2023-12-29T08:19:44;10.50;99.90
7970;DHT22;4030;52.362;9.206;2023-12-29T08:22:10;10.50;99.90
7970;DHT22;4030;52.362;9.206;2023-12-29T08:24:36;10.60;99.90
7970;DHT22;4030;52.362;9.206;2023-12-29T08:27:02;10.60;99.90
7970;DHT22;4030;52.362;9.206;2023-12-29T08:29:28;10.60;99.90
7970;DHT22;4030;52.362;9.206;2023-12-29T08:31:54;10.60;99.90
7970;DHT22;4030;52.362;9.206;2023-12-29T08:34:23;10.70;99.90
7970;DHT22;4030;52.362;9.206;2023-12-29T08:36:49;10.70;99.90
7970;DHT22;4030;52.362;9.206;2023-12-29T08:39:14;10.70;99.90
7970;DHT22;4030;52.362;9.206;2023-12-29T08:41:40;10.70;99.90
7970;DHT22;4030;52.362;9.206;2023-12-29T08:44:06;10.80;99.90
7970;DHT22;4030;52.362;9.206;2023-12-29T08:46:31;10.80;99.90
7970;DHT22;4030;52.362;9.206;2023-12-29T08:48:58;10.90;99.90
7970;DHT22;4030;52.362;9.206;2023-12-29T08:51:23;10.90;99.90
7970;DHT22;4030;52.362;9.206;2023-12-29T08:53:49;10.90;99.90
7970;DHT22;4030;52.362;9.206;2023-12-29T08:56:15;10.90;99.90
7970;DHT22;4030;52.362;9.206;2023-12-29T08:58:40;10.90;99.90
7970;DHT22;4030;52.362;9.206;2023-12-29T09:01:07;11.00;99.90
7970;DHT22;4030;52.362;9.206;2023-12-29T09:03:32;11.00;99.90
7970;DHT22;4030;52.362;9.206;2023-12-29T09:05:58;11.10;99.90
7970;DHT22;4030;52.362;9.206;2023-12-29T09:08:26;11.10;99.90
7970;DHT22;4030;52.362;9.206;2023-12-29T09:10:52;11.10;99.90
7970;DHT22;4030;52.362;9.206;2023-12-29T09:13:18;11.00;99.90
7970;DHT22;4030;52.362;9.206;2023-12-29T09:15:48;11.00;99.90
7970;DHT22;4030;52.362;9.206;2023-12-29T09:18:14;11.00;99.90
7970;DHT22;4030;52.362;9.206;2023-12-29T09:20:39;11.00;99.90
7970;DHT22;4030;52.362;9.206;2023-12-29T09:23:05;11.00;99.90
7970;DHT22;4030;52.362;9.206;2023-12-29T09:25:31;11.00;99.90
7970;DHT22;4030;52.362;9.206;2023-12-29T09:27:56;11.00;99.90
7970;DHT22;4030;52.362;9.206;2023-12-29T09:30:22;10.90;99.90
7970;DHT22;4030;52.362;9.206;2023-12-29T09:32:48;10.90;99.90
7970;DHT22;4030;52.362;9.206;2023-12-29T09:35:13;10.90;99.90
7970;DHT22;4030;52.362;9.206;2023-12-29T09:37:39;10.90;99.90
7970;DHT22;4030;52.362;9.206;2023-12-29T09:40:05;10.80;99.90
7970;DHT22;4030;52.362;9.206;2023-12-29T09:42:33;10.80;99.90
7970;DHT22;4030;52.362;9.206;2023-12-29T09:45:02;10.80;99.90
7970;DHT22;4030;52.362;9.206;2023-12-29T09:47:34;10.70;99.90
7970;DHT22;4030;52.362;9.206;2023-12-29T09:50:05;10.70;99.90
7970;DHT22;4030;52.362;9.206;2023-12-29T09:52:31;10.70;99.90
7970;DHT22;4030;52.362;9.206;2023-12-29T09:54:58;10.70;99.90
7970;DHT22;4030;52.362;9.206;2023-12-29T09:57:24;10.70;99.90
7970;DHT22;4030;52.362;9.206;2023-12-29T09:59:51;10.60;99.90
7970;DHT22;4030;52.362;9.206;2023-12-29T10:02:20;10.60;99.90
7970;DHT22;4030;52.362;9.206;2023-12-29T10:04:49;10.60;99.90
7970;DHT22;4030;52.362;9.206;2023-12-29T10:07:24;10.60;99.90
7970;DHT22;4030;52.362;9.206;2023-12-29T10:09:54;10.60;99.90
7970;DHT22;4030;52.362;9.206;2023-12-29T10:12:21;10.60;99.90
7970;DHT22;4030;52.362;9.206;2023-12-29T10:15:12;10.60;99.90
7970;DHT22;4030;52.362;9.206;2023-12-29T10:17:59;10.50;99.90
7970;DHT22;4030;52.362;9.206;2023-12-29T10:20:56;10.60;99.90
7970;DHT22;4030;52.362;9.206;2023-12-29T10:23:40;10.50;99.90
7970;DHT22;4030;52.362;9.206;2023-12-29T10:26:10;10.50;99.90
7970;DHT22;4030;52.362;9.206;2023-12-29T10:28:36;10.50;99.90
7970;DHT22;4030;52.362;9.206;2023-12-29T10:31:04;10.50;99.90
7970;DHT22;4030;52.362;9.206;2023-12-29T10:33:29;10.50;99.90
7970;DHT22;4030;52.362;9.206;2023-12-29T10:36:01;10.50;99.90
7970;DHT22;4030;52.362;9.206;2023-12-29T10:38:29;10.50;99.90
7970;DHT22;4030;52.362;9.206;2023-12-29T10:41:01;10.60;99.90
7970;DHT22;4030;52.362;9.206;2023-12-29T10:43:35;10.60;99.90
7970;DHT22;4030;52.362;9.206;2023-12-29T10:46:08;10.60;99.90
7970;DHT22;4030;52.362;9.206;2023-12-29T10:48:35;10.60;99.90
7970;DHT22;4030;52.362;9.206;2023-12-29T10:51:02;10.70;99.90
7970;DHT22;4030;52.362;9.206;2023-12-29T10:53:30;10.70;99.90
7970;DHT22;4030;52.362;9.206;2023-12-29T10:55:57;10.70;99.90
7970;DHT22;4030;52.362;9.206;2023-12-29T10:58:24;10.70;99.90
7970;DHT22;4030;52.362;9.206;2023-12-29T11:00:54;10.80;99.90
7970;DHT22;4030;52.362;9.206;2023-12-29T11:03:21;10.80;99.90
7970;DHT22;4030;52.362;9.206;2023-12-29T11:05:47;10.80;99.90
7970;DHT22;4030;52.362;9.206;2023-12-29T11:08:19;10.80;99.90
7970;DHT22;4030;52.362;9.206;2023-12-29T11:10:47;10.80;99.90
7970;DHT22;4030;52.362;9.206;2023-12-29T11:13:14;10.80;99.90
7970;DHT22;4030;52.362;9.206;2023-12-29T11:15:44;10.80;99.90
7970;DHT22;4030;52.362;9.206;2023-12-29T11:18:14;10.90;99.90
7970;DHT22;4030;52.362;9.206;2023-12-29T11:20:43;10.90;99.90
7970;DHT22;4030;52.362;9.206;2023-12-29T11:23:10;10.90;99.90
7970;DHT22;4030;52.362;9.206;2023-12-29T11:25:40;10.90;99.90
7970;DHT22;4030;52.362;9.206;2023-12-29T11:28:10;11.00;99.90
7970;DHT22;4030;52.362;9.206;2023-12-29T11:30:39;11.00;99.90
7970;DHT22;4030;52.362;9.206;2023-12-29T11:35:56;11.00;99.90
7970;DHT22;4030;52.362;9.206;2023-12-29T11:38:30;11.00;99.90
7970;DHT22;4030;52.362;9.206;2023-12-29T11:41:11;11.00;99.90
7970;DHT22;4030;52.362;9.206;2023-12-29T11:43:42;11.00;99.90
7970;DHT22;4030;52.362;9.206;2023-12-29T11:46:34;11.00;99.90
7970;DHT22;4030;52.362;9.206;2023-12-29T11:49:00;11.00;99.90
7970;DHT22;4030;52.362;9.206;2023-12-29T11:51:39;11.10;99.90
7970;DHT22;4030;52.362;9.206;2023-12-29T11:54:06;11.10;99.90
7970;DHT22;4030;52.362;9.206;2023-12-29T11:59:20;11.10;99.90
7970;DHT22;4030;52.362;9.206;2023-12-29T12:01:51;11.20;99.90
7970;DHT22;4030;52.362;9.206;2023-12-29T12:04:38;11.20;99.90
7970;DHT22;4030;52.362;9.206;2023-12-29T12:10:16;11.20;99.90
7970;DHT22;4030;52.362;9.206;2023-12-29T12:12:58;11.20;99.90
7970;DHT22;4030;52.362;9.206;2023-12-29T12:17:57;11.30;99.90
7970;DHT22;4030;52.362;9.206;2023-12-29T12:20:24;11.40;99.90
7970;DHT22;4030;52.362;9.206;2023-12-29T12:23:39;11.40;99.90
7970;DHT22;4030;52.362;9.206;2023-12-29T12:25:46;11.40;99.90
7970;DHT22;4030;52.362;9.206;2023-12-29T12:28:14;11.40;99.90
7970;DHT22;4030;52.362;9.206;2023-12-29T12:30:40;11.40;99.90
7970;DHT22;4030;52.362;9.206;2023-12-29T12:33:06;11.40;99.90
7970;DHT22;4030;52.362;9.206;2023-12-29T12:35:32;11.40;99.90
7970;DHT22;4030;52.362;9.206;2023-12-29T12:38:07;11.40;99.90
7970;DHT22;4030;52.362;9.206;2023-12-29T12:40:37;11.50;99.90
7970;DHT22;4030;52.362;9.206;2023-12-29T12:43:03;11.40;99.90
7970;DHT22;4030;52.362;9.206;2023-12-29T12:45:33;11.40;99.90
7970;DHT22;4030;52.362;9.206;2023-12-29T12:48:13;11.40;99.90
7970;DHT22;4030;52.362;9.206;2023-12-29T12:50:45;11.40;99.90
7970;DHT22;4030;52.362;9.206;2023-12-29T12:53:12;11.40;99.90
7970;DHT22;4030;52.362;9.206;2023-12-29T12:55:46;11.40;99.90
7970;DHT22;4030;52.362;9.206;2023-12-29T12:58:13;11.40;99.90
7970;DHT22;4030;52.362;9.206;2023-12-29T13:00:40;11.40;99.90
7970;DHT22;4030;52.362;9.206;2023-12-29T13:03:07;11.40;99.90
7970;DHT22;4030;52.362;9.206;2023-12-29T13:05:33;11.50;99.90
7970;DHT22;4030;52.362;9.206;2023-12-29T13:07:58;11.40;99.90
7970;DHT22;4030;52.362;9.206;2023-12-29T13:10:24;11.40;99.90
7970;DHT22;4030;52.362;9.206;2023-12-29T13:12:53;11.40;99.90
7970;DHT22;4030;52.362;9.206;2023-12-29T13:15:20;11.50;99.90
7970;DHT22;4030;52.362;9.206;2023-12-29T13:17:55;11.50;99.90
7970;DHT22;4030;52.362;9.206;2023-12-29T13:20:21;11.50;99.90
7970;DHT22;4030;52.362;9.206;2023-12-29T13:22:48;11.60;99.90
7970;DHT22;4030;52.362;9.206;2023-12-29T13:25:20;11.60;99.90
7970;DHT22;4030;52.362;9.206;2023-12-29T13:27:49;11.70;99.90
7970;DHT22;4030;52.362;9.206;2023-12-29T13:30:16;11.80;99.90
7970;DHT22;4030;52.362;9.206;2023-12-29T13:32:42;11.90;99.90
7970;DHT22;4030;52.362;9.206;2023-12-29T13:35:31;11.90;99.90
7970;DHT22;4030;52.362;9.206;2023-12-29T13:40:56;12.00;99.90
7970;DHT22;4030;52.362;9.206;2023-12-29T13:43:25;12.00;99.90
7970;DHT22;4030;52.362;9.206;2023-12-29T13:45:53;12.00;99.90
7970;DHT22;4030;52.362;9.206;2023-12-29T13:48:19;11.90;99.90
7970;DHT22;4030;52.362;9.206;2023-12-29T13:50:47;11.90;99.90
7970;DHT22;4030;52.362;9.206;2023-12-29T13:53:20;11.90;99.90
7970;DHT22;4030;52.362;9.206;2023-12-29T13:55:47;11.80;99.90
7970;DHT22;4030;52.362;9.206;2023-12-29T13:58:15;11.80;99.90
7970;DHT22;4030;52.362;9.206;2023-12-29T14:00:43;11.80;99.90
7970;DHT22;4030;52.362;9.206;2023-12-29T14:03:23;11.80;99.90
7970;DHT22;4030;52.362;9.206;2023-12-29T14:05:56;11.80;99.90
7970;DHT22;4030;52.362;9.206;2023-12-29T14:08:27;11.80;99.90
7970;DHT22;4030;52.362;9.206;2023-12-29T14:11:08;11.80;99.90
7970;DHT22;4030;52.362;9.206;2023-12-29T14:13:43;11.90;99.90
7970;DHT22;4030;52.362;9.206;2023-12-29T14:16:10;11.80;99.90
7970;DHT22;4030;52.362;9.206;2023-12-29T14:21:30;11.80;99.90
7970;DHT22;4030;52.362;9.206;2023-12-29T14:24:11;11.80;99.90
7970;DHT22;4030;52.362;9.206;2023-12-29T14:27:01;11.70;99.90
7970;DHT22;4030;52.362;9.206;2023-12-29T14:29:28;11.70;99.90
7970;DHT22;4030;52.362;9.206;2023-12-29T14:31:54;11.60;99.90
7970;DHT22;4030;52.362;9.206;2023-12-29T14:34:22;11.60;99.90
7970;DHT22;4030;52.362;9.206;2023-12-29T14:36:48;11.60;99.90
7970;DHT22;4030;52.362;9.206;2023-12-29T14:39:14;11.50;99.90
7970;DHT22;4030;52.362;9.206;2023-12-29T14:41:43;11.50;99.90
7970;DHT22;4030;52.362;9.206;2023-12-29T14:44:09;11.40;99.90
7970;DHT22;4030;52.362;9.206;2023-12-29T14:46:35;11.40;99.90
7970;DHT22;4030;52.362;9.206;2023-12-29T14:49:02;11.40;99.90
7970;DHT22;4030;52.362;9.206;2023-12-29T14:51:28;11.40;99.90
7970;DHT22;4030;52.362;9.206;2023-12-29T14:53:53;11.30;99.90
7970;DHT22;4030;52.362;9.206;2023-12-29T14:56:19;11.30;99.90
7970;DHT22;4030;52.362;9.206;2023-12-29T14:58:45;11.20;99.90
7970;DHT22;4030;52.362;9.206;2023-12-29T15:01:11;11.20;99.90
7970;DHT22;4030;52.362;9.206;2023-12-29T15:03:37;11.20;99.90
7970;DHT22;4030;52.362;9.206;2023-12-29T15:06:03;11.20;99.90
7970;DHT22;4030;52.362;9.206;2023-12-29T15:08:30;11.10;99.90
7970;DHT22;4030;52.362;9.206;2023-12-29T15:11:04;11.10;99.90
7970;DHT22;4030;52.362;9.206;2023-12-29T15:13:31;11.10;99.90
7970;DHT22;4030;52.362;9.206;2023-12-29T15:16:01;11.10;99.90
7970;DHT22;4030;52.362;9.206;2023-12-29T15:18:27;11.10;99.90
7970;DHT22;4030;52.362;9.206;2023-12-29T15:20:55;11.00;99.90
7970;DHT22;4030;52.362;9.206;2023-12-29T15:23:24;11.00;99.90
7970;DHT22;4030;52.362;9.206;2023-12-29T15:25:50;11.00;99.90
7970;DHT22;4030;52.362;9.206;2023-12-29T15:28:17;10.90;99.90
7970;DHT22;4030;52.362;9.206;2023-12-29T15:30:43;10.90;99.90
7970;DHT22;4030;52.362;9.206;2023-12-29T15:33:11;10.90;99.90
7970;DHT22;4030;52.362;9.206;2023-12-29T15:35:37;10.90;99.90
7970;DHT22;4030;52.362;9.206;2023-12-29T15:38:02;10.90;99.90
7970;DHT22;4030;52.362;9.206;2023-12-29T15:40:28;10.90;99.90
7970;DHT22;4030;52.362;9.206;2023-12-29T15:42:54;10.90;99.90
7970;DHT22;4030;52.362;9.206;2023-12-29T15:45:21;10.80;99.90
7970;DHT22;4030;52.362;9.206;2023-12-29T15:47:47;10.80;99.90
7970;DHT22;4030;52.362;9.206;2023-12-29T15:50:13;10.90;99.90
7970;DHT22;4030;52.362;9.206;2023-12-29T15:52:38;10.80;99.90
7970;DHT22;4030;52.362;9.206;2023-12-29T15:55:05;10.80;99.90
7970;DHT22;4030;52.362;9.206;2023-12-29T15:57:32;10.80;99.90
7970;DHT22;4030;52.362;9.206;2023-12-29T15:59:58;10.80;99.90
7970;DHT22;4030;52.362;9.206;2023-12-29T16:02:24;10.80;99.90
7970;DHT22;4030;52.362;9.206;2023-12-29T16:04:52;10.80;99.90
7970;DHT22;4030;52.362;9.206;2023-12-29T16:07:17;10.80;99.90
7970;DHT22;4030;52.362;9.206;2023-12-29T16:09:43;10.70;99.90
7970;DHT22;4030;52.362;9.206;2023-12-29T16:12:08;10.70;99.90
7970;DHT22;4030;52.362;9.206;2023-12-29T16:14:34;10.70;99.90
7970;DHT22;4030;52.362;9.206;2023-12-29T16:17:00;10.70;99.90
7970;DHT22;4030;52.362;9.206;2023-12-29T16:19:26;10.70;99.90
7970;DHT22;4030;52.362;9.206;2023-12-29T16:21:52;10.70;99.90
7970;DHT22;4030;52.362;9.206;2023-12-29T16:24:18;10.70;99.90